sensor_id;sensor_type;location;lat;lon;timestamp;P1;durP1;ratioP1;P2;durP2;ratioP2
24521;SDS011;12680;57.804;12.190;2024-03-07T00:00:09;8.73;;;3.65;;
24521;SDS011;12680;57.804;12.190;2024-03-07T00:02:45;8.98;;;3.65;;
24521;SDS011;12680;57.804;12.190;2024-03-07T00:05:15;7.72;;;3.30;;
24521;SDS011;12680;57.804;12.190;2024-03-07T00:07:43;5.50;;;3.03;;
24521;SDS011;12680;57.804;12.190;2024-03-07T00:10:10;6.30;;;3.67;;
24521;SDS011;12680;57.804;12.190;2024-03-07T00:12:38;4.97;;;3.22;;
24521;SDS011;12680;57.804;12.190;2024-03-07T00:15:07;5.30;;;3.40;;
24521;SDS011;12680;57.804;12.190;2024-03-07T00:17:35;9.20;;;3.67;;
24521;SDS011;12680;57.804;12.190;2024-03-07T00:20:02;8.93;;;3.42;;
24521;SDS011;12680;57.804;12.190;2024-03-07T00:22:31;5.97;;;3.00;;
24521;SDS011;12680;57.804;12.190;2024-03-07T00:24:57;7.55;;;3.38;;
24521;SDS011;12680;57.804;12.190;2024-03-07T00:27:26;5.70;;;3.42;;
24521;SDS011;12680;57.804;12.190;2024-03-07T00:29:53;7.05;;;3.08;;
24521;SDS011;12680;57.804;12.190;2024-03-07T00:32:20;10.38;;;3.40;;
24521;SDS011;12680;57.804;12.190;2024-03-07T00:34:48;6.20;;;3.30;;
24521;SDS011;12680;57.804;12.190;2024-03-07T00:37:15;7.30;;;3.55;;
24521;SDS011;12680;57.804;12.190;2024-03-07T00:39:42;9.23;;;3.28;;
24521;SDS011;12680;57.804;12.190;2024-03-07T00:42:09;7.60;;;3.53;;
24521;SDS011;12680;57.804;12.190;2024-03-07T00:44:36;4.50;;;3.33;;
24521;SDS011;12680;57.804;12.190;2024-03-07T00:47:03;6.57;;;3.25;;
24521;SDS011;12680;57.804;12.190;2024-03-07T00:49:31;10.63;;;2.80;;
24521;SDS011;12680;57.804;12.190;2024-03-07T00:51:58;7.80;;;3.28;;
24521;SDS011;12680;57.804;12.190;2024-03-07T00:54:25;5.95;;;3.65;;
24521;SDS011;12680;57.804;12.190;2024-03-07T00:56:52;9.15;;;3.35;;
24521;SDS011;12680;57.804;12.190;2024-03-07T00:59:20;6.40;;;3.35;;
24521;SDS011;12680;57.804;12.190;2024-03-07T01:01:47;5.70;;;3.55;;
24521;SDS011;12680;57.804;12.190;2024-03-07T01:04:15;6.18;;;3.45;;
24521;SDS011;12680;57.804;12.190;2024-03-07T01:06:42;7.70;;;3.00;;
24521;SDS011;12680;57.804;12.190;2024-03-07T01:09:09;7.28;;;3.13;;
24521;SDS011;12680;57.804;12.190;2024-03-07T01:11:42;6.55;;;3.22;;
24521;SDS011;12680;57.804;12.190;2024-03-07T01:14:10;8.45;;;3.95;;
24521;SDS011;12680;57.804;12.190;2024-03-07T01:16:37;5.10;;;2.88;;
24521;SDS011;12680;57.804;12.190;2024-03-07T01:19:04;8.85;;;3.28;;
24521;SDS011;12680;57.804;12.190;2024-03-07T01:21:35;10.23;;;4.28;;
24521;SDS011;12680;57.804;12.190;2024-03-07T01:24:04;9.57;;;4.13;;
24521;SDS011;12680;57.804;12.190;2024-03-07T01:26:32;7.20;;;3.60;;
24521;SDS011;12680;57.804;12.190;2024-03-07T01:29:02;6.13;;;3.45;;
24521;SDS011;12680;57.804;12.190;2024-03-07T01:31:29;7.95;;;3.28;;
24521;SDS011;12680;57.804;12.190;2024-03-07T01:33:56;8.60;;;3.95;;
24521;SDS011;12680;57.804;12.190;2024-03-07T01:36:22;9.13;;;4.00;;
24521;SDS011;12680;57.804;12.190;2024-03-07T01:38:49;9.98;;;4.38;;
24521;SDS011;12680;57.804;12.190;2024-03-07T01:41:16;9.13;;;3.83;;
24521;SDS011;12680;57.804;12.190;2024-03-07T01:43:43;6.63;;;3.65;;
24521;SDS011;12680;57.804;12.190;2024-03-07T01:46:10;7.78;;;3.17;;
24521;SDS011;12680;57.804;12.190;2024-03-07T01:48:37;7.57;;;3.88;;
24521;SDS011;12680;57.804;12.190;2024-03-07T01:51:04;17.27;;;3.95;;
24521;SDS011;12680;57.804;12.190;2024-03-07T01:53:32;10.13;;;3.55;;
24521;SDS011;12680;57.804;12.190;2024-03-07T01:56:00;6.47;;;3.58;;
24521;SDS011;12680;57.804;12.190;2024-03-07T01:58:29;7.38;;;3.75;;
24521;SDS011;12680;57.804;12.190;2024-03-07T02:00:57;6.60;;;3.78;;
24521;SDS011;12680;57.804;12.190;2024-03-07T02:03:26;7.80;;;3.45;;
24521;SDS011;12680;57.804;12.190;2024-03-07T02:05:52;10.10;;;4.10;;
24521;SDS011;12680;57.804;12.190;2024-03-07T02:08:20;8.95;;;4.25;;
24521;SDS011;12680;57.804;12.190;2024-03-07T02:10:47;10.45;;;4.25;;
24521;SDS011;12680;57.804;12.190;2024-03-07T02:13:15;8.05;;;4.13;;
24521;SDS011;12680;57.804;12.190;2024-03-07T02:15:42;8.20;;;4.07;;
24521;SDS011;12680;57.804;12.190;2024-03-07T02:18:12;7.22;;;3.30;;
24521;SDS011;12680;57.804;12.190;2024-03-07T02:20:46;10.00;;;4.10;;
24521;SDS011;12680;57.804;12.190;2024-03-07T02:23:13;8.75;;;4.50;;
24521;SDS011;12680;57.804;12.190;2024-03-07T02:25:41;8.57;;;4.00;;
24521;SDS011;12680;57.804;12.190;2024-03-07T02:28:07;7.95;;;3.70;;
24521;SDS011;12680;57.804;12.190;2024-03-07T02:30:34;8.95;;;4.45;;
24521;SDS011;12680;57.804;12.190;2024-03-07T02:33:01;9.77;;;3.70;;
24521;SDS011;12680;57.804;12.190;2024-03-07T02:35:38;9.27;;;3.63;;
24521;SDS011;12680;57.804;12.190;2024-03-07T02:38:05;10.23;;;4.10;;
24521;SDS011;12680;57.804;12.190;2024-03-07T02:40:32;11.05;;;4.13;;
24521;SDS011;12680;57.804;12.190;2024-03-07T02:42:59;5.40;;;3.58;;
24521;SDS011;12680;57.804;12.190;2024-03-07T02:45:26;6.82;;;3.70;;
24521;SDS011;12680;57.804;12.190;2024-03-07T02:47:53;8.60;;;3.58;;
24521;SDS011;12680;57.804;12.190;2024-03-07T02:50:21;8.90;;;3.22;;
24521;SDS011;12680;57.804;12.190;2024-03-07T02:52:49;4.85;;;3.42;;
24521;SDS011;12680;57.804;12.190;2024-03-07T02:55:16;6.88;;;3.72;;
24521;SDS011;12680;57.804;12.190;2024-03-07T02:57:45;6.13;;;4.10;;
24521;SDS011;12680;57.804;12.190;2024-03-07T03:00:12;8.43;;;3.70;;
24521;SDS011;12680;57.804;12.190;2024-03-07T03:02:57;10.35;;;3.75;;
24521;SDS011;12680;57.804;12.190;2024-03-07T03:05:24;8.73;;;3.85;;
24521;SDS011;12680;57.804;12.190;2024-03-07T03:07:51;8.27;;;3.63;;
24521;SDS011;12680;57.804;12.190;2024-03-07T03:10:21;5.65;;;3.42;;
24521;SDS011;12680;57.804;12.190;2024-03-07T03:12:56;6.50;;;3.90;;
24521;SDS011;12680;57.804;12.190;2024-03-07T03:15:27;8.80;;;3.90;;
24521;SDS011;12680;57.804;12.190;2024-03-07T03:17:54;6.10;;;3.17;;
24521;SDS011;12680;57.804;12.190;2024-03-07T03:20:21;8.73;;;4.20;;
24521;SDS011;12680;57.804;12.190;2024-03-07T03:22:54;4.78;;;3.25;;
24521;SDS011;12680;57.804;12.190;2024-03-07T03:25:41;8.48;;;3.78;;
24521;SDS011;12680;57.804;12.190;2024-03-07T03:28:08;6.22;;;3.42;;
24521;SDS011;12680;57.804;12.190;2024-03-07T03:30:40;5.75;;;3.53;;
24521;SDS011;12680;57.804;12.190;2024-03-07T03:33:08;5.70;;;3.30;;
24521;SDS011;12680;57.804;12.190;2024-03-07T03:35:36;6.03;;;3.10;;
24521;SDS011;12680;57.804;12.190;2024-03-07T03:38:04;7.95;;;3.88;;
24521;SDS011;12680;57.804;12.190;2024-03-07T03:40:33;6.38;;;3.58;;
24521;SDS011;12680;57.804;12.190;2024-03-07T03:43:00;5.53;;;3.63;;
24521;SDS011;12680;57.804;12.190;2024-03-07T03:45:27;9.35;;;4.05;;
24521;SDS011;12680;57.804;12.190;2024-03-07T03:47:54;5.22;;;3.65;;
24521;SDS011;12680;57.804;12.190;2024-03-07T03:50:21;6.53;;;3.75;;
24521;SDS011;12680;57.804;12.190;2024-03-07T03:52:51;7.75;;;3.67;;
24521;SDS011;12680;57.804;12.190;2024-03-07T03:55:18;4.47;;;3.53;;
24521;SDS011;12680;57.804;12.190;2024-03-07T03:57:47;7.55;;;4.03;;
24521;SDS011;12680;57.804;12.190;2024-03-07T04:00:15;8.32;;;3.72;;
24521;SDS011;12680;57.804;12.190;2024-03-07T04:02:43;7.95;;;3.50;;
24521;SDS011;12680;57.804;12.190;2024-03-07T04:05:18;6.68;;;3.63;;
24521;SDS011;12680;57.804;12.190;2024-03-07T04:07:46;8.75;;;3.35;;
24521;SDS011;12680;57.804;12.190;2024-03-07T04:10:14;8.73;;;4.03;;
24521;SDS011;12680;57.804;12.190;2024-03-07T04:12:43;9.13;;;3.60;;
24521;SDS011;12680;57.804;12.190;2024-03-07T04:15:11;8.10;;;3.58;;
24521;SDS011;12680;57.804;12.190;2024-03-07T04:17:44;6.32;;;3.13;;
24521;SDS011;12680;57.804;12.190;2024-03-07T04:20:15;6.28;;;3.45;;
24521;SDS011;12680;57.804;12.190;2024-03-07T04:22:45;6.57;;;3.60;;
24521;SDS011;12680;57.804;12.190;2024-03-07T04:25:12;6.85;;;3.78;;
24521;SDS011;12680;57.804;12.190;2024-03-07T04:27:39;6.70;;;3.38;;
24521;SDS011;12680;57.804;12.190;2024-03-07T04:30:08;5.95;;;3.25;;
24521;SDS011;12680;57.804;12.190;2024-03-07T04:32:36;8.23;;;3.42;;
24521;SDS011;12680;57.804;12.190;2024-03-07T04:35:08;7.90;;;3.63;;
24521;SDS011;12680;57.804;12.190;2024-03-07T04:37:38;8.82;;;3.88;;
24521;SDS011;12680;57.804;12.190;2024-03-07T04:40:08;6.47;;;3.50;;
24521;SDS011;12680;57.804;12.190;2024-03-07T04:45:09;5.68;;;3.72;;
24521;SDS011;12680;57.804;12.190;2024-03-07T04:47:40;8.18;;;4.35;;
24521;SDS011;12680;57.804;12.190;2024-03-07T04:50:11;7.43;;;4.05;;
24521;SDS011;12680;57.804;12.190;2024-03-07T04:52:39;9.20;;;3.78;;
24521;SDS011;12680;57.804;12.190;2024-03-07T04:55:07;7.78;;;4.07;;
24521;SDS011;12680;57.804;12.190;2024-03-07T04:57:35;8.90;;;4.22;;
24521;SDS011;12680;57.804;12.190;2024-03-07T05:00:10;9.80;;;3.50;;
24521;SDS011;12680;57.804;12.190;2024-03-07T05:02:47;8.43;;;3.70;;
24521;SDS011;12680;57.804;12.190;2024-03-07T05:07:52;5.78;;;3.42;;
24521;SDS011;12680;57.804;12.190;2024-03-07T05:10:19;7.63;;;4.25;;
24521;SDS011;12680;57.804;12.190;2024-03-07T05:12:47;11.10;;;3.88;;
24521;SDS011;12680;57.804;12.190;2024-03-07T05:15:14;7.38;;;4.47;;
24521;SDS011;12680;57.804;12.190;2024-03-07T05:17:41;6.75;;;3.90;;
24521;SDS011;12680;57.804;12.190;2024-03-07T05:20:10;7.47;;;4.03;;
24521;SDS011;12680;57.804;12.190;2024-03-07T05:22:39;6.30;;;4.13;;
24521;SDS011;12680;57.804;12.190;2024-03-07T05:25:18;13.98;;;4.82;;
24521;SDS011;12680;57.804;12.190;2024-03-07T05:27:45;9.48;;;4.20;;
24521;SDS011;12680;57.804;12.190;2024-03-07T05:30:12;7.85;;;4.30;;
24521;SDS011;12680;57.804;12.190;2024-03-07T05:32:42;7.78;;;3.92;;
24521;SDS011;12680;57.804;12.190;2024-03-07T05:35:09;7.72;;;4.25;;
24521;SDS011;12680;57.804;12.190;2024-03-07T05:37:38;8.60;;;4.40;;
24521;SDS011;12680;57.804;12.190;2024-03-07T05:40:08;10.07;;;4.47;;
24521;SDS011;12680;57.804;12.190;2024-03-07T05:42:35;10.20;;;4.60;;
24521;SDS011;12680;57.804;12.190;2024-03-07T05:45:02;17.38;;;5.97;;
24521;SDS011;12680;57.804;12.190;2024-03-07T05:47:29;15.45;;;5.60;;
24521;SDS011;12680;57.804;12.190;2024-03-07T05:49:56;19.17;;;6.57;;
24521;SDS011;12680;57.804;12.190;2024-03-07T05:52:23;16.30;;;7.13;;
24521;SDS011;12680;57.804;12.190;2024-03-07T05:54:50;13.07;;;6.25;;
24521;SDS011;12680;57.804;12.190;2024-03-07T05:57:17;20.63;;;7.20;;
24521;SDS011;12680;57.804;12.190;2024-03-07T05:59:43;15.75;;;5.88;;
24521;SDS011;12680;57.804;12.190;2024-03-07T06:02:12;16.48;;;5.97;;
24521;SDS011;12680;57.804;12.190;2024-03-07T06:04:42;12.65;;;6.28;;
24521;SDS011;12680;57.804;12.190;2024-03-07T06:07:10;10.00;;;5.40;;
24521;SDS011;12680;57.804;12.190;2024-03-07T06:09:37;9.70;;;4.68;;
24521;SDS011;12680;57.804;12.190;2024-03-07T06:12:04;13.40;;;4.63;;
24521;SDS011;12680;57.804;12.190;2024-03-07T06:14:48;14.45;;;5.43;;
24521;SDS011;12680;57.804;12.190;2024-03-07T06:17:15;11.57;;;5.05;;
24521;SDS011;12680;57.804;12.190;2024-03-07T06:19:45;9.48;;;4.72;;
24521;SDS011;12680;57.804;12.190;2024-03-07T06:22:13;11.43;;;4.85;;
24521;SDS011;12680;57.804;12.190;2024-03-07T06:24:40;7.68;;;4.65;;
24521;SDS011;12680;57.804;12.190;2024-03-07T06:27:08;12.68;;;5.05;;
24521;SDS011;12680;57.804;12.190;2024-03-07T06:29:42;9.52;;;5.53;;
24521;SDS011;12680;57.804;12.190;2024-03-07T06:32:09;10.60;;;4.82;;
24521;SDS011;12680;57.804;12.190;2024-03-07T06:34:36;13.07;;;5.72;;
24521;SDS011;12680;57.804;12.190;2024-03-07T06:37:04;13.85;;;5.53;;
24521;SDS011;12680;57.804;12.190;2024-03-07T06:39:32;13.75;;;5.75;;
24521;SDS011;12680;57.804;12.190;2024-03-07T06:41:59;10.40;;;5.32;;
24521;SDS011;12680;57.804;12.190;2024-03-07T06:44:27;10.95;;;5.57;;
24521;SDS011;12680;57.804;12.190;2024-03-07T06:46:54;11.80;;;4.70;;
24521;SDS011;12680;57.804;12.190;2024-03-07T06:49:20;10.70;;;5.28;;
24521;SDS011;12680;57.804;12.190;2024-03-07T06:51:47;11.65;;;4.70;;
24521;SDS011;12680;57.804;12.190;2024-03-07T06:54:14;8.00;;;4.50;;
24521;SDS011;12680;57.804;12.190;2024-03-07T06:56:41;8.43;;;4.50;;
24521;SDS011;12680;57.804;12.190;2024-03-07T06:59:10;7.35;;;3.80;;
24521;SDS011;12680;57.804;12.190;2024-03-07T07:01:37;8.00;;;4.03;;
24521;SDS011;12680;57.804;12.190;2024-03-07T07:04:03;8.25;;;4.25;;
24521;SDS011;12680;57.804;12.190;2024-03-07T07:06:30;10.82;;;4.65;;
24521;SDS011;12680;57.804;12.190;2024-03-07T07:08:58;8.52;;;4.60;;
24521;SDS011;12680;57.804;12.190;2024-03-07T07:11:25;5.65;;;3.45;;
24521;SDS011;12680;57.804;12.190;2024-03-07T07:13:58;9.60;;;4.82;;
24521;SDS011;12680;57.804;12.190;2024-03-07T07:16:25;8.75;;;5.20;;
24521;SDS011;12680;57.804;12.190;2024-03-07T07:18:53;8.15;;;4.82;;
24521;SDS011;12680;57.804;12.190;2024-03-07T07:21:21;7.38;;;4.25;;
24521;SDS011;12680;57.804;12.190;2024-03-07T07:23:48;12.48;;;6.00;;
24521;SDS011;12680;57.804;12.190;2024-03-07T07:26:15;8.80;;;5.47;;
24521;SDS011;12680;57.804;12.190;2024-03-07T07:28:42;12.80;;;4.97;;
24521;SDS011;12680;57.804;12.190;2024-03-07T07:31:08;9.13;;;4.68;;
24521;SDS011;12680;57.804;12.190;2024-03-07T07:33:35;8.30;;;4.47;;
24521;SDS011;12680;57.804;12.190;2024-03-07T07:36:02;9.45;;;4.97;;
24521;SDS011;12680;57.804;12.190;2024-03-07T07:38:30;7.57;;;4.40;;
24521;SDS011;12680;57.804;12.190;2024-03-07T07:40:58;11.35;;;5.05;;
24521;SDS011;12680;57.804;12.190;2024-03-07T07:43:25;10.63;;;5.03;;
24521;SDS011;12680;57.804;12.190;2024-03-07T07:46:07;11.75;;;4.93;;
24521;SDS011;12680;57.804;12.190;2024-03-07T07:48:34;10.48;;;5.00;;
24521;SDS011;12680;57.804;12.190;2024-03-07T07:51:01;13.27;;;5.82;;
24521;SDS011;12680;57.804;12.190;2024-03-07T07:53:28;10.93;;;5.13;;
24521;SDS011;12680;57.804;12.190;2024-03-07T07:55:55;8.95;;;5.00;;
24521;SDS011;12680;57.804;12.190;2024-03-07T07:58:22;9.13;;;5.30;;
24521;SDS011;12680;57.804;12.190;2024-03-07T08:00:49;9.82;;;5.78;;
24521;SDS011;12680;57.804;12.190;2024-03-07T08:03:17;9.77;;;5.25;;
24521;SDS011;12680;57.804;12.190;2024-03-07T08:05:48;9.80;;;4.53;;
24521;SDS011;12680;57.804;12.190;2024-03-07T08:08:15;13.05;;;5.20;;
24521;SDS011;12680;57.804;12.190;2024-03-07T08:10:44;8.90;;;4.10;;
24521;SDS011;12680;57.804;12.190;2024-03-07T08:13:12;6.40;;;3.97;;
24521;SDS011;12680;57.804;12.190;2024-03-07T08:15:40;9.23;;;4.93;;
24521;SDS011;12680;57.804;12.190;2024-03-07T08:18:07;9.18;;;4.95;;
24521;SDS011;12680;57.804;12.190;2024-03-07T08:20:38;11.30;;;5.00;;
24521;SDS011;12680;57.804;12.190;2024-03-07T08:23:08;9.65;;;4.88;;
24521;SDS011;12680;57.804;12.190;2024-03-07T08:25:35;6.75;;;4.80;;
24521;SDS011;12680;57.804;12.190;2024-03-07T08:28:02;7.20;;;4.63;;
24521;SDS011;12680;57.804;12.190;2024-03-07T08:30:31;11.25;;;5.03;;
24521;SDS011;12680;57.804;12.190;2024-03-07T08:32:58;10.48;;;4.93;;
24521;SDS011;12680;57.804;12.190;2024-03-07T08:35:28;10.35;;;4.72;;
24521;SDS011;12680;57.804;12.190;2024-03-07T08:37:55;9.88;;;4.72;;
24521;SDS011;12680;57.804;12.190;2024-03-07T08:40:24;9.82;;;5.20;;
24521;SDS011;12680;57.804;12.190;2024-03-07T08:42:58;8.82;;;4.75;;
24521;SDS011;12680;57.804;12.190;2024-03-07T08:45:26;7.22;;;4.60;;
24521;SDS011;12680;57.804;12.190;2024-03-07T08:47:54;9.50;;;4.72;;
24521;SDS011;12680;57.804;12.190;2024-03-07T08:50:25;8.02;;;4.70;;
24521;SDS011;12680;57.804;12.190;2024-03-07T08:52:54;7.65;;;4.53;;
24521;SDS011;12680;57.804;12.190;2024-03-07T08:55:22;7.88;;;4.60;;
24521;SDS011;12680;57.804;12.190;2024-03-07T08:57:51;8.27;;;4.68;;
24521;SDS011;12680;57.804;12.190;2024-03-07T09:00:18;11.15;;;4.45;;
24521;SDS011;12680;57.804;12.190;2024-03-07T09:02:53;10.13;;;4.93;;
24521;SDS011;12680;57.804;12.190;2024-03-07T09:05:22;8.82;;;4.70;;
24521;SDS011;12680;57.804;12.190;2024-03-07T09:07:50;7.10;;;5.10;;
24521;SDS011;12680;57.804;12.190;2024-03-07T09:10:18;9.85;;;4.07;;
24521;SDS011;12680;57.804;12.190;2024-03-07T09:12:45;9.05;;;4.57;;
24521;SDS011;12680;57.804;12.190;2024-03-07T09:15:16;7.97;;;4.65;;
24521;SDS011;12680;57.804;12.190;2024-03-07T09:17:44;8.68;;;4.78;;
24521;SDS011;12680;57.804;12.190;2024-03-07T09:20:12;7.03;;;4.03;;
24521;SDS011;12680;57.804;12.190;2024-03-07T09:22:42;9.98;;;4.60;;
24521;SDS011;12680;57.804;12.190;2024-03-07T09:25:10;5.55;;;3.97;;
24521;SDS011;12680;57.804;12.190;2024-03-07T09:27:39;10.25;;;4.15;;
24521;SDS011;12680;57.804;12.190;2024-03-07T09:30:09;7.55;;;4.10;;
24521;SDS011;12680;57.804;12.190;2024-03-07T09:32:41;7.97;;;4.05;;
24521;SDS011;12680;57.804;12.190;2024-03-07T09:35:10;6.35;;;3.80;;
24521;SDS011;12680;57.804;12.190;2024-03-07T09:37:39;4.63;;;3.15;;
24521;SDS011;12680;57.804;12.190;2024-03-07T09:40:10;8.02;;;2.67;;
24521;SDS011;12680;57.804;12.190;2024-03-07T09:42:44;4.45;;;2.78;;
24521;SDS011;12680;57.804;12.190;2024-03-07T09:45:15;5.88;;;2.78;;
24521;SDS011;12680;57.804;12.190;2024-03-07T09:47:48;8.88;;;3.08;;
24521;SDS011;12680;57.804;12.190;2024-03-07T09:50:18;9.00;;;2.53;;
24521;SDS011;12680;57.804;12.190;2024-03-07T09:52:48;4.82;;;2.67;;
24521;SDS011;12680;57.804;12.190;2024-03-07T09:55:19;3.95;;;2.15;;
24521;SDS011;12680;57.804;12.190;2024-03-07T09:57:48;5.07;;;3.08;;
24521;SDS011;12680;57.804;12.190;2024-03-07T10:00:17;4.93;;;2.38;;
24521;SDS011;12680;57.804;12.190;2024-03-07T10:05:28;6.25;;;2.53;;
24521;SDS011;12680;57.804;12.190;2024-03-07T10:07:59;5.95;;;2.40;;
24521;SDS011;12680;57.804;12.190;2024-03-07T10:10:27;3.63;;;2.13;;
24521;SDS011;12680;57.804;12.190;2024-03-07T10:12:56;7.90;;;2.30;;
24521;SDS011;12680;57.804;12.190;2024-03-07T10:15:32;6.40;;;2.80;;
24521;SDS011;12680;57.804;12.190;2024-03-07T10:18:02;4.53;;;3.00;;
24521;SDS011;12680;57.804;12.190;2024-03-07T10:20:29;4.78;;;2.75;;
24521;SDS011;12680;57.804;12.190;2024-03-07T10:22:56;5.60;;;2.92;;
24521;SDS011;12680;57.804;12.190;2024-03-07T10:25:24;7.18;;;2.70;;
24521;SDS011;12680;57.804;12.190;2024-03-07T10:27:56;6.07;;;2.35;;
24521;SDS011;12680;57.804;12.190;2024-03-07T10:30:25;8.40;;;2.80;;
24521;SDS011;12680;57.804;12.190;2024-03-07T10:32:58;3.45;;;2.13;;
24521;SDS011;12680;57.804;12.190;2024-03-07T10:35:28;3.70;;;2.25;;
24521;SDS011;12680;57.804;12.190;2024-03-07T10:37:57;7.38;;;2.65;;
24521;SDS011;12680;57.804;12.190;2024-03-07T10:40:28;4.60;;;2.95;;
24521;SDS011;12680;57.804;12.190;2024-03-07T10:42:56;4.38;;;2.45;;
24521;SDS011;12680;57.804;12.190;2024-03-07T10:45:24;2.75;;;2.05;;
24521;SDS011;12680;57.804;12.190;2024-03-07T10:48:00;2.13;;;1.77;;
24521;SDS011;12680;57.804;12.190;2024-03-07T10:50:45;3.10;;;1.67;;
24521;SDS011;12680;57.804;12.190;2024-03-07T10:56:52;3.55;;;1.80;;
24521;SDS011;12680;57.804;12.190;2024-03-07T10:59:36;4.78;;;1.80;;
24521;SDS011;12680;57.804;12.190;2024-03-07T11:02:24;4.35;;;1.52;;
24521;SDS011;12680;57.804;12.190;2024-03-07T11:05:00;2.85;;;1.40;;
24521;SDS011;12680;57.804;12.190;2024-03-07T11:07:27;3.42;;;1.88;;
24521;SDS011;12680;57.804;12.190;2024-03-07T11:09:54;4.95;;;2.22;;
24521;SDS011;12680;57.804;12.190;2024-03-07T11:12:23;3.08;;;1.67;;
24521;SDS011;12680;57.804;12.190;2024-03-07T11:14:50;3.05;;;1.88;;
24521;SDS011;12680;57.804;12.190;2024-03-07T11:17:19;5.38;;;2.13;;
24521;SDS011;12680;57.804;12.190;2024-03-07T11:19:48;3.65;;;1.90;;
24521;SDS011;12680;57.804;12.190;2024-03-07T11:22:34;3.13;;;1.80;;
24521;SDS011;12680;57.804;12.190;2024-03-07T11:25:01;3.50;;;2.40;;
24521;SDS011;12680;57.804;12.190;2024-03-07T11:27:37;4.72;;;2.10;;
24521;SDS011;12680;57.804;12.190;2024-03-07T11:30:09;8.57;;;2.30;;
24521;SDS011;12680;57.804;12.190;2024-03-07T11:32:37;5.13;;;2.03;;
24521;SDS011;12680;57.804;12.190;2024-03-07T11:35:05;4.93;;;1.88;;
24521;SDS011;12680;57.804;12.190;2024-03-07T11:37:41;3.35;;;1.77;;
24521;SDS011;12680;57.804;12.190;2024-03-07T11:42:52;3.40;;;1.70;;
24521;SDS011;12680;57.804;12.190;2024-03-07T11:45:19;2.40;;;1.63;;
24521;SDS011;12680;57.804;12.190;2024-03-07T11:47:54;4.25;;;1.98;;
24521;SDS011;12680;57.804;12.190;2024-03-07T11:50:38;2.47;;;1.83;;
24521;SDS011;12680;57.804;12.190;2024-03-07T11:53:07;3.85;;;1.88;;
24521;SDS011;12680;57.804;12.190;2024-03-07T11:55:38;2.72;;;1.65;;
24521;SDS011;12680;57.804;12.190;2024-03-07T11:58:12;4.72;;;1.95;;
24521;SDS011;12680;57.804;12.190;2024-03-07T12:00:49;6.15;;;1.83;;
24521;SDS011;12680;57.804;12.190;2024-03-07T12:03:18;3.03;;;2.00;;
24521;SDS011;12680;57.804;12.190;2024-03-07T12:05:50;3.70;;;2.03;;
24521;SDS011;12680;57.804;12.190;2024-03-07T12:08:18;5.70;;;2.03;;
24521;SDS011;12680;57.804;12.190;2024-03-07T12:10:50;3.33;;;2.03;;
24521;SDS011;12680;57.804;12.190;2024-03-07T12:13:23;5.63;;;1.98;;
24521;SDS011;12680;57.804;12.190;2024-03-07T12:15:51;2.78;;;1.50;;
24521;SDS011;12680;57.804;12.190;2024-03-07T12:18:18;4.88;;;1.80;;
24521;SDS011;12680;57.804;12.190;2024-03-07T12:20:47;3.08;;;1.58;;
24521;SDS011;12680;57.804;12.190;2024-03-07T12:23:24;2.90;;;1.90;;
24521;SDS011;12680;57.804;12.190;2024-03-07T12:26:03;2.00;;;1.70;;
24521;SDS011;12680;57.804;12.190;2024-03-07T12:28:31;5.32;;;1.95;;
24521;SDS011;12680;57.804;12.190;2024-03-07T12:31:01;3.72;;;1.60;;
24521;SDS011;12680;57.804;12.190;2024-03-07T12:33:29;3.83;;;1.90;;
24521;SDS011;12680;57.804;12.190;2024-03-07T12:36:01;2.53;;;1.85;;
24521;SDS011;12680;57.804;12.190;2024-03-07T12:38:36;3.63;;;1.77;;
24521;SDS011;12680;57.804;12.190;2024-03-07T12:41:05;2.83;;;1.60;;
24521;SDS011;12680;57.804;12.190;2024-03-07T12:43:43;2.90;;;1.90;;
24521;SDS011;12680;57.804;12.190;2024-03-07T12:46:13;2.75;;;1.60;;
24521;SDS011;12680;57.804;12.190;2024-03-07T12:48:42;3.22;;;1.67;;
24521;SDS011;12680;57.804;12.190;2024-03-07T12:51:10;6.57;;;2.10;;
24521;SDS011;12680;57.804;12.190;2024-03-07T12:53:43;3.67;;;1.80;;
24521;SDS011;12680;57.804;12.190;2024-03-07T12:56:10;3.15;;;1.60;;
24521;SDS011;12680;57.804;12.190;2024-03-07T12:58:37;6.15;;;2.10;;
24521;SDS011;12680;57.804;12.190;2024-03-07T13:01:04;4.22;;;2.00;;
24521;SDS011;12680;57.804;12.190;2024-03-07T13:03:30;3.20;;;1.80;;
24521;SDS011;12680;57.804;12.190;2024-03-07T13:05:58;2.47;;;1.70;;
24521;SDS011;12680;57.804;12.190;2024-03-07T13:08:29;3.25;;;1.77;;
24521;SDS011;12680;57.804;12.190;2024-03-07T13:10:57;2.70;;;2.00;;
24521;SDS011;12680;57.804;12.190;2024-03-07T13:13:26;3.90;;;2.20;;
24521;SDS011;12680;57.804;12.190;2024-03-07T13:15:53;5.75;;;1.88;;
24521;SDS011;12680;57.804;12.190;2024-03-07T13:18:21;2.20;;;1.90;;
24521;SDS011;12680;57.804;12.190;2024-03-07T13:20:49;2.95;;;1.90;;
24521;SDS011;12680;57.804;12.190;2024-03-07T13:23:16;2.83;;;2.25;;
24521;SDS011;12680;57.804;12.190;2024-03-07T13:25:43;2.80;;;2.10;;
24521;SDS011;12680;57.804;12.190;2024-03-07T13:28:12;5.82;;;2.00;;
24521;SDS011;12680;57.804;12.190;2024-03-07T13:30:43;4.05;;;1.75;;
24521;SDS011;12680;57.804;12.190;2024-03-07T13:33:15;3.67;;;1.90;;
24521;SDS011;12680;57.804;12.190;2024-03-07T13:35:42;4.32;;;1.80;;
24521;SDS011;12680;57.804;12.190;2024-03-07T13:38:09;4.43;;;2.00;;
24521;SDS011;12680;57.804;12.190;2024-03-07T13:40:35;2.95;;;2.00;;
24521;SDS011;12680;57.804;12.190;2024-03-07T13:43:05;3.05;;;1.80;;
24521;SDS011;12680;57.804;12.190;2024-03-07T13:45:33;4.50;;;1.98;;
24521;SDS011;12680;57.804;12.190;2024-03-07T13:48:05;3.05;;;1.73;;
24521;SDS011;12680;57.804;12.190;2024-03-07T13:50:34;2.45;;;1.65;;
24521;SDS011;12680;57.804;12.190;2024-03-07T13:53:21;4.03;;;2.00;;
24521;SDS011;12680;57.804;12.190;2024-03-07T13:55:52;2.72;;;1.73;;
24521;SDS011;12680;57.804;12.190;2024-03-07T14:20:47;4.22;;;2.10;;
24521;SDS011;12680;57.804;12.190;2024-03-07T14:29:54;3.30;;;1.90;;
24521;SDS011;12680;57.804;12.190;2024-03-07T14:32:56;3.60;;;1.80;;
24521;SDS011;12680;57.804;12.190;2024-03-07T14:38:06;3.72;;;2.10;;
24521;SDS011;12680;57.804;12.190;2024-03-07T14:40:50;6.70;;;2.20;;
24521;SDS011;12680;57.804;12.190;2024-03-07T14:43:18;3.50;;;1.92;;
24521;SDS011;12680;57.804;12.190;2024-03-07T14:45:46;4.55;;;2.30;;
24521;SDS011;12680;57.804;12.190;2024-03-07T14:48:13;3.92;;;1.88;;
24521;SDS011;12680;57.804;12.190;2024-03-07T14:50:45;6.15;;;1.63;;
24521;SDS011;12680;57.804;12.190;2024-03-07T14:53:13;4.00;;;1.73;;
24521;SDS011;12680;57.804;12.190;2024-03-07T14:55:46;2.80;;;1.50;;
24521;SDS011;12680;57.804;12.190;2024-03-07T14:58:13;3.60;;;1.73;;
24521;SDS011;12680;57.804;12.190;2024-03-07T15:00:42;3.65;;;1.75;;
24521;SDS011;12680;57.804;12.190;2024-03-07T15:03:23;2.90;;;1.60;;
24521;SDS011;12680;57.804;12.190;2024-03-07T15:05:55;4.03;;;2.15;;
24521;SDS011;12680;57.804;12.190;2024-03-07T15:08:22;2.53;;;1.40;;
24521;SDS011;12680;57.804;12.190;2024-03-07T15:10:59;1.50;;;1.40;;
24521;SDS011;12680;57.804;12.190;2024-03-07T15:13:37;6.35;;;2.10;;
24521;SDS011;12680;57.804;12.190;2024-03-07T15:16:04;2.63;;;1.83;;
24521;SDS011;12680;57.804;12.190;2024-03-07T15:18:33;4.05;;;1.77;;
24521;SDS011;12680;57.804;12.190;2024-03-07T15:21:00;4.78;;;2.50;;
24521;SDS011;12680;57.804;12.190;2024-03-07T15:23:27;3.05;;;1.92;;
24521;SDS011;12680;57.804;12.190;2024-03-07T15:25:54;3.03;;;1.90;;
24521;SDS011;12680;57.804;12.190;2024-03-07T15:28:21;3.17;;;1.52;;
24521;SDS011;12680;57.804;12.190;2024-03-07T15:30:48;2.20;;;1.50;;